METAR AND TAF INFORMATION
METAR FOR ENTC
ADDS - METARS form results

(0123 UTC 01 June 2020)
Data provider http://aviationweather.gov/metar/data/
 
METAR text: ENTC 010120Z 20006KT 150V220 CAVOK 09/05 Q1028 RMK WIND 2600FT 24015KT
Conditions at: ENTC (TROMSO/LANGNES , NO) observed 0120 UTC 01 June 2020
Temperature: 9.0°C (48°F)
Dewpoint: 5.0°C (41°F) [RH = 76%]
Pressure (altimeter): 30.35 inches Hg (1028.0 mb)
Winds: from the SSW (200 degrees) at 7 MPH (6 knots; 3.1 m/s)
Visibility: 6 or more miles (10+ km)
Ceiling: ceiling and visibility are OK
Clouds: unknown
Weather: no significant weather observed at this time

METAR text: ENTC 010050Z VRB03KT CAVOK 09/05 Q1029 RMK WIND 2600FT 24014KT
Conditions at: ENTC (TROMSO/LANGNES , NO) observed 0050 UTC 01 June 2020
Temperature: 9.0°C (48°F)
Dewpoint: 5.0°C (41°F) [RH = 76%]
Pressure (altimeter): 30.38 inches Hg (1029.0 mb)
Winds: variable direction winds at 3 MPH (3 knots; 1.5 m/s)
Visibility: 6 or more miles (10+ km)
Ceiling: ceiling and visibility are OK
Clouds: unknown
Weather: no significant weather observed at this time

Forecast for: ENTC (TROMSO/LANGNES , NO)
Text: TAF ENTC 0100/0124 22009KT CAVOK
Forecast period: 0000 UTC 01 June 2020 to 0000 UTC 02 June 2020
Forecast type: FROM: standard forecast or significant change
Winds: from the SW (220 degrees) at 10 MPH (9 knots; 4.6 m/s)
Visibility: 6 or more miles 10+ km)
Ceiling: unknown
Clouds: missing
Weather: NSW  (no significant weather)

 AIRPORT MAP

 RUNWAY INFORMATION
Runway 01 Runway length 7848 ft Runway width 148 ft
Runway elevation 25 ft Runway displaced threshold 0 ft Runway heading 13
Runway 19 Runway length 7848 ft Runway width 148 ft
Runway elevation 13 ft Runway displaced threshold 1286 ft Runway heading 193

 AIRPORT FREQUENCIES
Type APP Name APP Frequency 123.75 MHZ
Type ATIS Name ATIS Frequency 126.125 MHZ
Type TWR Name TWR Frequency 118.3 MHZ

 AIRPORT NEAR NAVIGATION AIDS
Type NDB Name Kobbe Frequency 283 KHZ
Type NDB Name Kvalsund Frequency 362 KHZ
Type NDB Name Lanes Frequency 268 KHZ
Type VOR-DME Name Tromso Frequency 113800 KHZ



Powered by Virtual Airlines Manager [v2.6.2]